sensor_id;sensor_type;location;lat;lon;timestamp;P1;durP1;ratioP1;P2;durP2;ratioP2
15254;SDS011;7730;49.610;11.136;2022-12-18T00:02:10;27.03;;;19.73;;
15254;SDS011;7730;49.610;11.136;2022-12-18T00:04:37;26.77;;;19.43;;
15254;SDS011;7730;49.610;11.136;2022-12-18T00:07:04;26.43;;;18.67;;
15254;SDS011;7730;49.610;11.136;2022-12-18T00:09:31;25.70;;;19.17;;
15254;SDS011;7730;49.610;11.136;2022-12-18T00:11:58;26.40;;;19.40;;
15254;SDS011;7730;49.610;11.136;2022-12-18T00:14:26;26.57;;;19.63;;
15254;SDS011;7730;49.610;11.136;2022-12-18T00:16:53;29.70;;;21.23;;
15254;SDS011;7730;49.610;11.136;2022-12-18T00:19:21;29.73;;;21.37;;
15254;SDS011;7730;49.610;11.136;2022-12-18T00:21:48;33.30;;;24.67;;
15254;SDS011;7730;49.610;11.136;2022-12-18T00:24:16;32.13;;;24.80;;
15254;SDS011;7730;49.610;11.136;2022-12-18T00:26:43;33.93;;;26.37;;
15254;SDS011;7730;49.610;11.136;2022-12-18T00:29:11;32.23;;;24.53;;
15254;SDS011;7730;49.610;11.136;2022-12-18T00:31:40;35.83;;;25.93;;
15254;SDS011;7730;49.610;11.136;2022-12-18T00:34:09;34.07;;;25.30;;
15254;SDS011;7730;49.610;11.136;2022-12-18T00:36:37;33.00;;;24.03;;
15254;SDS011;7730;49.610;11.136;2022-12-18T00:39:04;30.53;;;21.50;;
15254;SDS011;7730;49.610;11.136;2022-12-18T00:41:32;29.97;;;21.23;;
15254;SDS011;7730;49.610;11.136;2022-12-18T00:44:17;31.83;;;23.10;;
15254;SDS011;7730;49.610;11.136;2022-12-18T00:46:47;31.77;;;23.70;;
15254;SDS011;7730;49.610;11.136;2022-12-18T00:49:14;32.50;;;23.03;;
15254;SDS011;7730;49.610;11.136;2022-12-18T00:51:41;31.90;;;22.33;;
15254;SDS011;7730;49.610;11.136;2022-12-18T00:54:08;31.87;;;22.87;;
15254;SDS011;7730;49.610;11.136;2022-12-18T00:56:36;31.43;;;22.90;;
15254;SDS011;7730;49.610;11.136;2022-12-18T00:59:03;31.43;;;22.97;;
15254;SDS011;7730;49.610;11.136;2022-12-18T01:01:31;29.13;;;22.03;;
15254;SDS011;7730;49.610;11.136;2022-12-18T01:04:00;29.87;;;21.60;;
15254;SDS011;7730;49.610;11.136;2022-12-18T01:06:27;29.07;;;21.67;;
15254;SDS011;7730;49.610;11.136;2022-12-18T01:08:54;30.03;;;21.77;;
15254;SDS011;7730;49.610;11.136;2022-12-18T01:11:21;29.47;;;21.00;;
15254;SDS011;7730;49.610;11.136;2022-12-18T01:13:49;29.17;;;20.50;;
15254;SDS011;7730;49.610;11.136;2022-12-18T01:16:16;27.90;;;19.67;;
15254;SDS011;7730;49.610;11.136;2022-12-18T01:18:43;29.93;;;21.30;;
15254;SDS011;7730;49.610;11.136;2022-12-18T01:21:16;28.97;;;21.17;;
15254;SDS011;7730;49.610;11.136;2022-12-18T01:23:44;29.43;;;22.07;;
15254;SDS011;7730;49.610;11.136;2022-12-18T01:26:12;30.33;;;21.60;;
15254;SDS011;7730;49.610;11.136;2022-12-18T01:28:40;30.13;;;21.60;;
15254;SDS011;7730;49.610;11.136;2022-12-18T01:31:11;30.83;;;20.73;;
15254;SDS011;7730;49.610;11.136;2022-12-18T01:33:38;29.47;;;19.93;;
15254;SDS011;7730;49.610;11.136;2022-12-18T01:36:05;28.23;;;18.97;;
15254;SDS011;7730;49.610;11.136;2022-12-18T01:38:34;26.30;;;17.90;;
15254;SDS011;7730;49.610;11.136;2022-12-18T01:41:01;25.93;;;17.67;;
15254;SDS011;7730;49.610;11.136;2022-12-18T01:43:40;27.83;;;19.07;;
15254;SDS011;7730;49.610;11.136;2022-12-18T01:46:07;29.93;;;20.27;;
15254;SDS011;7730;49.610;11.136;2022-12-18T01:48:34;32.17;;;24.13;;
15254;SDS011;7730;49.610;11.136;2022-12-18T01:51:02;31.17;;;22.20;;
15254;SDS011;7730;49.610;11.136;2022-12-18T01:53:29;30.90;;;22.70;;
15254;SDS011;7730;49.610;11.136;2022-12-18T01:55:57;32.97;;;23.10;;
15254;SDS011;7730;49.610;11.136;2022-12-18T01:58:27;27.83;;;19.70;;
15254;SDS011;7730;49.610;11.136;2022-12-18T02:00:56;27.47;;;17.77;;
15254;SDS011;7730;49.610;11.136;2022-12-18T02:03:23;26.87;;;17.10;;
15254;SDS011;7730;49.610;11.136;2022-12-18T02:05:51;26.00;;;18.10;;
15254;SDS011;7730;49.610;11.136;2022-12-18T02:08:22;27.20;;;18.47;;
15254;SDS011;7730;49.610;11.136;2022-12-18T02:10:54;26.77;;;18.47;;
15254;SDS011;7730;49.610;11.136;2022-12-18T02:13:26;27.50;;;18.83;;
15254;SDS011;7730;49.610;11.136;2022-12-18T02:15:58;28.33;;;19.23;;
15254;SDS011;7730;49.610;11.136;2022-12-18T02:18:27;26.57;;;19.03;;
15254;SDS011;7730;49.610;11.136;2022-12-18T02:20:55;26.50;;;18.37;;
15254;SDS011;7730;49.610;11.136;2022-12-18T02:23:30;27.13;;;19.30;;
15254;SDS011;7730;49.610;11.136;2022-12-18T02:26:06;27.13;;;18.97;;
15254;SDS011;7730;49.610;11.136;2022-12-18T02:28:35;28.23;;;19.93;;
15254;SDS011;7730;49.610;11.136;2022-12-18T02:31:02;29.13;;;19.63;;
15254;SDS011;7730;49.610;11.136;2022-12-18T02:33:32;26.97;;;18.93;;
15254;SDS011;7730;49.610;11.136;2022-12-18T02:35:59;25.77;;;17.90;;
15254;SDS011;7730;49.610;11.136;2022-12-18T02:38:27;27.00;;;18.40;;
15254;SDS011;7730;49.610;11.136;2022-12-18T02:40:55;25.63;;;18.07;;
15254;SDS011;7730;49.610;11.136;2022-12-18T02:43:24;26.43;;;18.30;;
15254;SDS011;7730;49.610;11.136;2022-12-18T02:45:52;27.13;;;18.80;;
15254;SDS011;7730;49.610;11.136;2022-12-18T02:48:22;26.73;;;18.80;;
15254;SDS011;7730;49.610;11.136;2022-12-18T02:50:51;26.77;;;18.13;;
15254;SDS011;7730;49.610;11.136;2022-12-18T02:53:22;25.90;;;18.53;;
15254;SDS011;7730;49.610;11.136;2022-12-18T02:55:54;26.80;;;19.50;;
15254;SDS011;7730;49.610;11.136;2022-12-18T02:58:26;26.93;;;18.93;;
15254;SDS011;7730;49.610;11.136;2022-12-18T03:00:57;27.90;;;19.97;;
15254;SDS011;7730;49.610;11.136;2022-12-18T03:03:26;31.13;;;22.33;;
15254;SDS011;7730;49.610;11.136;2022-12-18T03:05:57;31.53;;;23.57;;
15254;SDS011;7730;49.610;11.136;2022-12-18T03:08:27;28.73;;;20.07;;
15254;SDS011;7730;49.610;11.136;2022-12-18T03:10:56;28.13;;;20.07;;
15254;SDS011;7730;49.610;11.136;2022-12-18T03:13:27;28.50;;;19.13;;
15254;SDS011;7730;49.610;11.136;2022-12-18T03:15:55;28.07;;;18.73;;
15254;SDS011;7730;49.610;11.136;2022-12-18T03:18:24;26.50;;;19.43;;
15254;SDS011;7730;49.610;11.136;2022-12-18T03:20:52;26.60;;;18.67;;
15254;SDS011;7730;49.610;11.136;2022-12-18T03:23:21;27.30;;;19.17;;
15254;SDS011;7730;49.610;11.136;2022-12-18T03:25:49;27.77;;;18.70;;
15254;SDS011;7730;49.610;11.136;2022-12-18T03:28:19;26.27;;;18.37;;
15254;SDS011;7730;49.610;11.136;2022-12-18T03:30:49;26.57;;;19.17;;
15254;SDS011;7730;49.610;11.136;2022-12-18T03:33:19;27.20;;;18.57;;
15254;SDS011;7730;49.610;11.136;2022-12-18T03:35:46;26.63;;;19.10;;
15254;SDS011;7730;49.610;11.136;2022-12-18T03:38:13;25.87;;;18.00;;
15254;SDS011;7730;49.610;11.136;2022-12-18T03:40:44;27.73;;;19.30;;
15254;SDS011;7730;49.610;11.136;2022-12-18T03:43:16;26.80;;;18.77;;
15254;SDS011;7730;49.610;11.136;2022-12-18T03:45:45;27.60;;;18.60;;
15254;SDS011;7730;49.610;11.136;2022-12-18T03:48:17;25.70;;;18.53;;
15254;SDS011;7730;49.610;11.136;2022-12-18T03:50:47;27.10;;;18.93;;
15254;SDS011;7730;49.610;11.136;2022-12-18T03:53:18;26.07;;;18.53;;
15254;SDS011;7730;49.610;11.136;2022-12-18T03:55:50;27.43;;;19.10;;
15254;SDS011;7730;49.610;11.136;2022-12-18T03:58:19;27.23;;;18.23;;
15254;SDS011;7730;49.610;11.136;2022-12-18T04:00:47;28.43;;;18.63;;
15254;SDS011;7730;49.610;11.136;2022-12-18T04:03:16;29.33;;;19.47;;
15254;SDS011;7730;49.610;11.136;2022-12-18T04:05:43;28.73;;;19.27;;
15254;SDS011;7730;49.610;11.136;2022-12-18T04:08:10;30.57;;;19.97;;
15254;SDS011;7730;49.610;11.136;2022-12-18T04:10:38;28.30;;;19.50;;
15254;SDS011;7730;49.610;11.136;2022-12-18T04:13:05;28.00;;;19.23;;
15254;SDS011;7730;49.610;11.136;2022-12-18T04:15:32;27.87;;;18.73;;
15254;SDS011;7730;49.610;11.136;2022-12-18T04:18:00;26.47;;;18.13;;
15254;SDS011;7730;49.610;11.136;2022-12-18T04:20:28;24.63;;;17.40;;
15254;SDS011;7730;49.610;11.136;2022-12-18T04:22:55;26.03;;;16.97;;
15254;SDS011;7730;49.610;11.136;2022-12-18T04:25:22;25.07;;;16.67;;
15254;SDS011;7730;49.610;11.136;2022-12-18T04:27:49;25.63;;;16.77;;
15254;SDS011;7730;49.610;11.136;2022-12-18T04:30:16;24.97;;;16.97;;
15254;SDS011;7730;49.610;11.136;2022-12-18T04:32:43;25.77;;;17.03;;
15254;SDS011;7730;49.610;11.136;2022-12-18T04:35:10;23.93;;;16.80;;
15254;SDS011;7730;49.610;11.136;2022-12-18T04:37:39;24.40;;;16.63;;
15254;SDS011;7730;49.610;11.136;2022-12-18T04:40:06;24.13;;;16.37;;
15254;SDS011;7730;49.610;11.136;2022-12-18T04:42:33;25.17;;;16.50;;
15254;SDS011;7730;49.610;11.136;2022-12-18T04:45:00;26.07;;;17.20;;
15254;SDS011;7730;49.610;11.136;2022-12-18T04:47:27;23.37;;;16.47;;
15254;SDS011;7730;49.610;11.136;2022-12-18T04:49:55;23.70;;;14.83;;
15254;SDS011;7730;49.610;11.136;2022-12-18T04:52:22;22.97;;;14.83;;
15254;SDS011;7730;49.610;11.136;2022-12-18T04:54:50;23.02;;;16.33;;
15254;SDS011;7730;49.610;11.136;2022-12-18T04:57:17;23.90;;;15.07;;
15254;SDS011;7730;49.610;11.136;2022-12-18T04:59:44;24.10;;;15.20;;
15254;SDS011;7730;49.610;11.136;2022-12-18T05:02:11;22.27;;;15.23;;
15254;SDS011;7730;49.610;11.136;2022-12-18T05:04:38;22.13;;;14.80;;
15254;SDS011;7730;49.610;11.136;2022-12-18T05:07:05;23.30;;;14.40;;
15254;SDS011;7730;49.610;11.136;2022-12-18T05:09:32;21.80;;;14.80;;
15254;SDS011;7730;49.610;11.136;2022-12-18T05:12:01;22.63;;;15.00;;
15254;SDS011;7730;49.610;11.136;2022-12-18T05:14:28;22.80;;;15.37;;
15254;SDS011;7730;49.610;11.136;2022-12-18T05:16:55;23.07;;;15.50;;
15254;SDS011;7730;49.610;11.136;2022-12-18T05:19:22;22.50;;;14.77;;
15254;SDS011;7730;49.610;11.136;2022-12-18T05:21:49;21.43;;;14.27;;
15254;SDS011;7730;49.610;11.136;2022-12-18T05:24:16;23.17;;;14.77;;
15254;SDS011;7730;49.610;11.136;2022-12-18T05:26:43;22.43;;;15.63;;
15254;SDS011;7730;49.610;11.136;2022-12-18T05:29:11;24.03;;;15.13;;
15254;SDS011;7730;49.610;11.136;2022-12-18T05:31:38;22.47;;;15.10;;
15254;SDS011;7730;49.610;11.136;2022-12-18T05:34:05;22.37;;;13.77;;
15254;SDS011;7730;49.610;11.136;2022-12-18T05:36:33;22.17;;;13.80;;
15254;SDS011;7730;49.610;11.136;2022-12-18T05:39:00;24.90;;;14.70;;
15254;SDS011;7730;49.610;11.136;2022-12-18T05:41:27;22.93;;;14.23;;
15254;SDS011;7730;49.610;11.136;2022-12-18T05:43:54;22.43;;;13.60;;
15254;SDS011;7730;49.610;11.136;2022-12-18T05:46:22;23.77;;;14.77;;
15254;SDS011;7730;49.610;11.136;2022-12-18T05:48:50;23.13;;;15.07;;
15254;SDS011;7730;49.610;11.136;2022-12-18T05:51:18;23.63;;;14.37;;
15254;SDS011;7730;49.610;11.136;2022-12-18T05:53:45;23.07;;;15.00;;
15254;SDS011;7730;49.610;11.136;2022-12-18T05:56:14;23.50;;;14.90;;
15254;SDS011;7730;49.610;11.136;2022-12-18T05:58:41;24.70;;;15.40;;
15254;SDS011;7730;49.610;11.136;2022-12-18T06:01:09;23.37;;;14.30;;
15254;SDS011;7730;49.610;11.136;2022-12-18T06:03:38;24.07;;;15.47;;
15254;SDS011;7730;49.610;11.136;2022-12-18T06:06:12;23.87;;;15.20;;
15254;SDS011;7730;49.610;11.136;2022-12-18T06:08:39;24.60;;;15.33;;
15254;SDS011;7730;49.610;11.136;2022-12-18T06:11:06;23.07;;;15.13;;
15254;SDS011;7730;49.610;11.136;2022-12-18T06:13:33;24.87;;;16.20;;
15254;SDS011;7730;49.610;11.136;2022-12-18T06:16:01;25.50;;;15.43;;
15254;SDS011;7730;49.610;11.136;2022-12-18T06:18:28;24.30;;;15.20;;
15254;SDS011;7730;49.610;11.136;2022-12-18T06:20:57;23.37;;;14.57;;
15254;SDS011;7730;49.610;11.136;2022-12-18T06:23:24;24.23;;;15.33;;
15254;SDS011;7730;49.610;11.136;2022-12-18T06:25:51;24.73;;;15.43;;
15254;SDS011;7730;49.610;11.136;2022-12-18T06:28:18;23.30;;;14.93;;
15254;SDS011;7730;49.610;11.136;2022-12-18T06:30:46;24.63;;;15.40;;
15254;SDS011;7730;49.610;11.136;2022-12-18T06:33:14;24.33;;;15.33;;
15254;SDS011;7730;49.610;11.136;2022-12-18T06:35:41;24.13;;;14.93;;
15254;SDS011;7730;49.610;11.136;2022-12-18T06:38:09;24.10;;;14.60;;
15254;SDS011;7730;49.610;11.136;2022-12-18T06:40:37;25.03;;;15.17;;
15254;SDS011;7730;49.610;11.136;2022-12-18T06:43:04;24.40;;;15.10;;
15254;SDS011;7730;49.610;11.136;2022-12-18T06:45:32;23.30;;;14.80;;
15254;SDS011;7730;49.610;11.136;2022-12-18T06:47:59;24.07;;;15.00;;
15254;SDS011;7730;49.610;11.136;2022-12-18T06:50:26;23.60;;;14.77;;
15254;SDS011;7730;49.610;11.136;2022-12-18T06:52:53;24.13;;;15.23;;
15254;SDS011;7730;49.610;11.136;2022-12-18T06:55:21;24.63;;;16.00;;
15254;SDS011;7730;49.610;11.136;2022-12-18T06:57:48;24.23;;;16.07;;
15254;SDS011;7730;49.610;11.136;2022-12-18T07:00:16;24.23;;;15.97;;
15254;SDS011;7730;49.610;11.136;2022-12-18T07:02:43;25.10;;;16.37;;
15254;SDS011;7730;49.610;11.136;2022-12-18T07:05:10;24.37;;;16.00;;
15254;SDS011;7730;49.610;11.136;2022-12-18T07:07:37;23.50;;;15.40;;
15254;SDS011;7730;49.610;11.136;2022-12-18T07:10:04;23.33;;;14.80;;
15254;SDS011;7730;49.610;11.136;2022-12-18T07:12:33;25.17;;;16.00;;
15254;SDS011;7730;49.610;11.136;2022-12-18T07:15:00;23.97;;;15.33;;
15254;SDS011;7730;49.610;11.136;2022-12-18T07:17:27;22.93;;;15.20;;
15254;SDS011;7730;49.610;11.136;2022-12-18T07:19:54;23.73;;;14.90;;
15254;SDS011;7730;49.610;11.136;2022-12-18T07:22:21;24.60;;;15.53;;
15254;SDS011;7730;49.610;11.136;2022-12-18T07:24:48;23.67;;;14.70;;
15254;SDS011;7730;49.610;11.136;2022-12-18T07:27:15;24.07;;;14.67;;
15254;SDS011;7730;49.610;11.136;2022-12-18T07:29:44;23.17;;;13.87;;
15254;SDS011;7730;49.610;11.136;2022-12-18T07:32:11;23.53;;;14.00;;
15254;SDS011;7730;49.610;11.136;2022-12-18T07:34:38;22.17;;;12.80;;
15254;SDS011;7730;49.610;11.136;2022-12-18T07:37:05;23.00;;;13.50;;
15254;SDS011;7730;49.610;11.136;2022-12-18T07:39:32;22.33;;;13.33;;
15254;SDS011;7730;49.610;11.136;2022-12-18T07:41:59;21.27;;;11.47;;
15254;SDS011;7730;49.610;11.136;2022-12-18T07:44:45;22.33;;;13.37;;
15254;SDS011;7730;49.610;11.136;2022-12-18T07:47:12;22.57;;;13.53;;
15254;SDS011;7730;49.610;11.136;2022-12-18T07:49:39;21.97;;;13.50;;
15254;SDS011;7730;49.610;11.136;2022-12-18T07:52:06;21.57;;;13.10;;
15254;SDS011;7730;49.610;11.136;2022-12-18T07:54:34;21.70;;;12.27;;
15254;SDS011;7730;49.610;11.136;2022-12-18T07:57:01;23.27;;;13.40;;
15254;SDS011;7730;49.610;11.136;2022-12-18T07:59:28;21.70;;;12.93;;
15254;SDS011;7730;49.610;11.136;2022-12-18T08:01:57;21.80;;;12.83;;
15254;SDS011;7730;49.610;11.136;2022-12-18T08:04:24;21.70;;;13.43;;
15254;SDS011;7730;49.610;11.136;2022-12-18T08:06:51;23.20;;;13.67;;
15254;SDS011;7730;49.610;11.136;2022-12-18T08:09:18;23.40;;;13.87;;
15254;SDS011;7730;49.610;11.136;2022-12-18T08:11:45;23.07;;;13.37;;
15254;SDS011;7730;49.610;11.136;2022-12-18T08:14:12;22.70;;;13.30;;
15254;SDS011;7730;49.610;11.136;2022-12-18T08:16:39;21.70;;;13.10;;
15254;SDS011;7730;49.610;11.136;2022-12-18T08:19:08;22.93;;;14.10;;
15254;SDS011;7730;49.610;11.136;2022-12-18T08:21:35;21.63;;;12.80;;
15254;SDS011;7730;49.610;11.136;2022-12-18T08:24:02;22.83;;;13.07;;
15254;SDS011;7730;49.610;11.136;2022-12-18T08:26:30;22.37;;;12.63;;
15254;SDS011;7730;49.610;11.136;2022-12-18T08:28:58;22.87;;;13.27;;
15254;SDS011;7730;49.610;11.136;2022-12-18T08:31:25;22.57;;;13.27;;
15254;SDS011;7730;49.610;11.136;2022-12-18T08:33:53;21.83;;;13.03;;
15254;SDS011;7730;49.610;11.136;2022-12-18T08:36:22;22.17;;;12.73;;
15254;SDS011;7730;49.610;11.136;2022-12-18T08:38:49;22.33;;;12.70;;
15254;SDS011;7730;49.610;11.136;2022-12-18T08:41:17;22.97;;;12.87;;
15254;SDS011;7730;49.610;11.136;2022-12-18T08:43:44;22.80;;;13.10;;
15254;SDS011;7730;49.610;11.136;2022-12-18T08:46:31;22.00;;;13.07;;
15254;SDS011;7730;49.610;11.136;2022-12-18T08:48:58;23.10;;;12.97;;
15254;SDS011;7730;49.610;11.136;2022-12-18T08:51:27;22.83;;;13.27;;
15254;SDS011;7730;49.610;11.136;2022-12-18T08:53:54;22.83;;;13.30;;
15254;SDS011;7730;49.610;11.136;2022-12-18T08:56:21;22.90;;;13.30;;
15254;SDS011;7730;49.610;11.136;2022-12-18T08:58:50;22.63;;;12.97;;
15254;SDS011;7730;49.610;11.136;2022-12-18T09:01:17;22.53;;;13.43;;
15254;SDS011;7730;49.610;11.136;2022-12-18T09:03:44;22.17;;;12.50;;
15254;SDS011;7730;49.610;11.136;2022-12-18T09:06:13;20.97;;;11.33;;
15254;SDS011;7730;49.610;11.136;2022-12-18T09:08:41;23.23;;;13.10;;
15254;SDS011;7730;49.610;11.136;2022-12-18T09:11:11;21.67;;;12.17;;
15254;SDS011;7730;49.610;11.136;2022-12-18T09:13:39;23.43;;;13.47;;
15254;SDS011;7730;49.610;11.136;2022-12-18T09:16:06;18.40;;;8.40;;
15254;SDS011;7730;49.610;11.136;2022-12-18T09:18:33;21.97;;;12.73;;
15254;SDS011;7730;49.610;11.136;2022-12-18T09:21:06;23.93;;;12.97;;
15254;SDS011;7730;49.610;11.136;2022-12-18T09:23:34;21.80;;;11.70;;
15254;SDS011;7730;49.610;11.136;2022-12-18T09:26:02;22.40;;;12.30;;
15254;SDS011;7730;49.610;11.136;2022-12-18T09:28:29;20.67;;;10.67;;
15254;SDS011;7730;49.610;11.136;2022-12-18T09:30:56;22.77;;;13.40;;
15254;SDS011;7730;49.610;11.136;2022-12-18T09:33:23;22.20;;;11.97;;
15254;SDS011;7730;49.610;11.136;2022-12-18T09:35:50;17.97;;;8.83;;
15254;SDS011;7730;49.610;11.136;2022-12-18T09:38:18;21.87;;;12.10;;
15254;SDS011;7730;49.610;11.136;2022-12-18T09:40:47;23.47;;;13.23;;
15254;SDS011;7730;49.610;11.136;2022-12-18T09:43:17;21.33;;;12.00;;
15254;SDS011;7730;49.610;11.136;2022-12-18T09:45:46;22.20;;;12.27;;
15254;SDS011;7730;49.610;11.136;2022-12-18T09:48:15;23.10;;;13.20;;
15254;SDS011;7730;49.610;11.136;2022-12-18T09:50:45;22.87;;;13.47;;
15254;SDS011;7730;49.610;11.136;2022-12-18T09:53:14;22.93;;;13.30;;
15254;SDS011;7730;49.610;11.136;2022-12-18T09:55:42;22.37;;;12.77;;
15254;SDS011;7730;49.610;11.136;2022-12-18T09:58:14;21.43;;;12.93;;
15254;SDS011;7730;49.610;11.136;2022-12-18T10:00:43;21.73;;;12.30;;
15254;SDS011;7730;49.610;11.136;2022-12-18T10:03:11;21.20;;;11.93;;
15254;SDS011;7730;49.610;11.136;2022-12-18T10:05:41;22.03;;;12.17;;
15254;SDS011;7730;49.610;11.136;2022-12-18T10:08:13;22.60;;;13.40;;
15254;SDS011;7730;49.610;11.136;2022-12-18T10:10:42;21.93;;;12.10;;
15254;SDS011;7730;49.610;11.136;2022-12-18T10:13:14;21.67;;;12.43;;
15254;SDS011;7730;49.610;11.136;2022-12-18T10:15:48;22.83;;;13.23;;
15254;SDS011;7730;49.610;11.136;2022-12-18T10:18:21;22.00;;;12.40;;
15254;SDS011;7730;49.610;11.136;2022-12-18T10:20:51;22.17;;;12.23;;
15254;SDS011;7730;49.610;11.136;2022-12-18T10:23:20;21.87;;;12.40;;
15254;SDS011;7730;49.610;11.136;2022-12-18T10:25:52;21.53;;;12.57;;
15254;SDS011;7730;49.610;11.136;2022-12-18T10:28:21;21.80;;;12.57;;
15254;SDS011;7730;49.610;11.136;2022-12-18T10:30:50;22.07;;;12.87;;
15254;SDS011;7730;49.610;11.136;2022-12-18T10:33:18;22.83;;;12.83;;
15254;SDS011;7730;49.610;11.136;2022-12-18T10:35:45;21.77;;;11.80;;
15254;SDS011;7730;49.610;11.136;2022-12-18T10:38:20;23.30;;;13.33;;
15254;SDS011;7730;49.610;11.136;2022-12-18T10:40:48;21.47;;;12.70;;
15254;SDS011;7730;49.610;11.136;2022-12-18T10:43:19;22.87;;;13.07;;
15254;SDS011;7730;49.610;11.136;2022-12-18T10:45:59;20.83;;;10.13;;
15254;SDS011;7730;49.610;11.136;2022-12-18T10:48:26;22.80;;;12.83;;
15254;SDS011;7730;49.610;11.136;2022-12-18T10:50:53;21.77;;;12.10;;
15254;SDS011;7730;49.610;11.136;2022-12-18T10:53:21;20.57;;;11.53;;
15254;SDS011;7730;49.610;11.136;2022-12-18T10:55:48;22.50;;;13.60;;
15254;SDS011;7730;49.610;11.136;2022-12-18T10:58:16;23.00;;;13.13;;
15254;SDS011;7730;49.610;11.136;2022-12-18T11:01:01;22.73;;;13.10;;
15254;SDS011;7730;49.610;11.136;2022-12-18T11:03:31;22.53;;;13.13;;
15254;SDS011;7730;49.610;11.136;2022-12-18T11:06:04;18.80;;;10.13;;
15254;SDS011;7730;49.610;11.136;2022-12-18T11:08:32;22.07;;;12.30;;
15254;SDS011;7730;49.610;11.136;2022-12-18T11:10:59;21.77;;;12.60;;
15254;SDS011;7730;49.610;11.136;2022-12-18T11:13:27;21.63;;;11.43;;
15254;SDS011;7730;49.610;11.136;2022-12-18T11:15:54;21.67;;;12.93;;
15254;SDS011;7730;49.610;11.136;2022-12-18T11:18:22;21.70;;;13.33;;
15254;SDS011;7730;49.610;11.136;2022-12-18T11:20:54;21.50;;;12.10;;
15254;SDS011;7730;49.610;11.136;2022-12-18T11:23:22;22.60;;;12.13;;
15254;SDS011;7730;49.610;11.136;2022-12-18T11:25:54;22.93;;;12.97;;
15254;SDS011;7730;49.610;11.136;2022-12-18T11:28:25;21.07;;;11.57;;
15254;SDS011;7730;49.610;11.136;2022-12-18T11:31:08;22.80;;;13.47;;
15254;SDS011;7730;49.610;11.136;2022-12-18T11:33:36;22.17;;;12.33;;
15254;SDS011;7730;49.610;11.136;2022-12-18T11:36:07;22.93;;;13.30;;
15254;SDS011;7730;49.610;11.136;2022-12-18T11:38:35;22.90;;;12.90;;
15254;SDS011;7730;49.610;11.136;2022-12-18T11:41:03;16.07;;;6.77;;
15254;SDS011;7730;49.610;11.136;2022-12-18T11:43:33;20.90;;;11.73;;
15254;SDS011;7730;49.610;11.136;2022-12-18T11:46:03;22.07;;;12.57;;
15254;SDS011;7730;49.610;11.136;2022-12-18T11:48:32;22.53;;;13.30;;
15254;SDS011;7730;49.610;11.136;2022-12-18T11:51:01;22.63;;;12.70;;
15254;SDS011;7730;49.610;11.136;2022-12-18T11:53:31;20.77;;;11.10;;
15254;SDS011;7730;49.610;11.136;2022-12-18T11:56:03;22.17;;;12.27;;
15254;SDS011;7730;49.610;11.136;2022-12-18T11:58:43;15.37;;;7.30;;
15254;SDS011;7730;49.610;11.136;2022-12-18T12:01:14;20.20;;;11.57;;
15254;SDS011;7730;49.610;11.136;2022-12-18T12:04:04;21.27;;;11.50;;
15254;SDS011;7730;49.610;11.136;2022-12-18T12:06:34;17.97;;;9.37;;
15254;SDS011;7730;49.610;11.136;2022-12-18T12:09:07;20.33;;;11.23;;
15254;SDS011;7730;49.610;11.136;2022-12-18T12:11:39;21.40;;;12.03;;
15254;SDS011;7730;49.610;11.136;2022-12-18T12:14:18;20.50;;;11.70;;
15254;SDS011;7730;49.610;11.136;2022-12-18T12:16:49;20.50;;;11.30;;
15254;SDS011;7730;49.610;11.136;2022-12-18T12:19:22;21.67;;;11.43;;
15254;SDS011;7730;49.610;11.136;2022-12-18T12:21:55;20.97;;;12.07;;
15254;SDS011;7730;49.610;11.136;2022-12-18T12:24:29;21.43;;;11.53;;
15254;SDS011;7730;49.610;11.136;2022-12-18T12:27:00;21.33;;;11.67;;
15254;SDS011;7730;49.610;11.136;2022-12-18T12:29:33;20.63;;;11.57;;
15254;SDS011;7730;49.610;11.136;2022-12-18T12:32:06;20.43;;;11.67;;
15254;SDS011;7730;49.610;11.136;2022-12-18T12:34:38;21.33;;;12.17;;
15254;SDS011;7730;49.610;11.136;2022-12-18T12:37:16;19.50;;;9.83;;
15254;SDS011;7730;49.610;11.136;2022-12-18T12:39:47;21.17;;;10.93;;
15254;SDS011;7730;49.610;11.136;2022-12-18T12:42:16;21.20;;;10.60;;
15254;SDS011;7730;49.610;11.136;2022-12-18T12:45:03;21.87;;;11.43;;
15254;SDS011;7730;49.610;11.136;2022-12-18T12:47:32;20.33;;;10.87;;
15254;SDS011;7730;49.610;11.136;2022-12-18T12:50:00;20.87;;;11.37;;
15254;SDS011;7730;49.610;11.136;2022-12-18T12:52:30;21.50;;;11.43;;
15254;SDS011;7730;49.610;11.136;2022-12-18T12:55:00;19.90;;;11.07;;
15254;SDS011;7730;49.610;11.136;2022-12-18T12:57:30;19.73;;;10.20;;
15254;SDS011;7730;49.610;11.136;2022-12-18T12:59:59;20.10;;;10.77;;
15254;SDS011;7730;49.610;11.136;2022-12-18T13:02:29;20.23;;;10.67;;
15254;SDS011;7730;49.610;11.136;2022-12-18T13:04:58;17.87;;;9.73;;
15254;SDS011;7730;49.610;11.136;2022-12-18T13:07:27;19.33;;;10.97;;
15254;SDS011;7730;49.610;11.136;2022-12-18T13:12:58;20.47;;;10.63;;
15254;SDS011;7730;49.610;11.136;2022-12-18T13:15:26;21.77;;;11.77;;
15254;SDS011;7730;49.610;11.136;2022-12-18T13:18:04;20.40;;;11.27;;
15254;SDS011;7730;49.610;11.136;2022-12-18T13:20:32;20.27;;;11.37;;
15254;SDS011;7730;49.610;11.136;2022-12-18T13:23:01;18.97;;;10.63;;
15254;SDS011;7730;49.610;11.136;2022-12-18T13:25:45;19.17;;;10.20;;
15254;SDS011;7730;49.610;11.136;2022-12-18T13:28:14;20.13;;;11.43;;
15254;SDS011;7730;49.610;11.136;2022-12-18T13:30:43;19.73;;;10.50;;
15254;SDS011;7730;49.610;11.136;2022-12-18T13:36:00;20.57;;;11.00;;
15254;SDS011;7730;49.610;11.136;2022-12-18T13:38:32;20.67;;;10.93;;
15254;SDS011;7730;49.610;11.136;2022-12-18T13:41:00;20.07;;;10.83;;
15254;SDS011;7730;49.610;11.136;2022-12-18T13:43:32;18.33;;;10.13;;
15254;SDS011;7730;49.610;11.136;2022-12-18T13:46:02;19.17;;;9.67;;
15254;SDS011;7730;49.610;11.136;2022-12-18T13:48:30;17.03;;;8.83;;
15254;SDS011;7730;49.610;11.136;2022-12-18T13:50:59;20.03;;;10.93;;
15254;SDS011;7730;49.610;11.136;2022-12-18T13:53:29;19.70;;;11.13;;
15254;SDS011;7730;49.610;11.136;2022-12-18T13:55:57;19.97;;;10.90;;
15254;SDS011;7730;49.610;11.136;2022-12-18T13:58:24;19.10;;;10.40;;
15254;SDS011;7730;49.610;11.136;2022-12-18T14:00:53;18.97;;;9.77;;
15254;SDS011;7730;49.610;11.136;2022-12-18T14:03:21;19.97;;;10.63;;
15254;SDS011;7730;49.610;11.136;2022-12-18T14:05:52;19.87;;;10.40;;
15254;SDS011;7730;49.610;11.136;2022-12-18T14:08:20;19.40;;;10.53;;
15254;SDS011;7730;49.610;11.136;2022-12-18T14:10:47;19.73;;;10.80;;
15254;SDS011;7730;49.610;11.136;2022-12-18T14:13:18;16.93;;;8.37;;
15254;SDS011;7730;49.610;11.136;2022-12-18T14:15:46;17.17;;;7.93;;
15254;SDS011;7730;49.610;11.136;2022-12-18T14:18:19;16.90;;;8.77;;
15254;SDS011;7730;49.610;11.136;2022-12-18T14:20:46;19.03;;;10.40;;
15254;SDS011;7730;49.610;11.136;2022-12-18T14:23:30;19.03;;;9.93;;
15254;SDS011;7730;49.610;11.136;2022-12-18T14:25:58;18.23;;;10.50;;
15254;SDS011;7730;49.610;11.136;2022-12-18T14:28:25;18.77;;;9.83;;
15254;SDS011;7730;49.610;11.136;2022-12-18T14:30:53;19.03;;;9.90;;
15254;SDS011;7730;49.610;11.136;2022-12-18T14:33:23;18.50;;;9.83;;
15254;SDS011;7730;49.610;11.136;2022-12-18T14:35:54;18.83;;;9.90;;
15254;SDS011;7730;49.610;11.136;2022-12-18T14:38:23;18.13;;;9.80;;
15254;SDS011;7730;49.610;11.136;2022-12-18T14:40:54;18.83;;;9.53;;